Time,TemperatureF,DewpointF,PressureIn,WindDirection,WindDirectionDegrees,WindSpeedMPH,WindSpeedGustMPH,Humidity,HourlyPrecipIn,Conditions,Clouds,dailyrainin,SoftwareType,DateUTC
2013-01-13 00:00:00,32.5,32.0,30.05,North,0,0.0,0.0,98,0.00,,,0.00,VWS V14.01,2013-01-13 05:00:00,
2013-01-13 00:01:00,32.5,32.0,30.05,North,0,0.0,0.0,98,0.00,,,0.00,VWS V14.01,2013-01-13 05:01:00,
2013-01-13 00:06:00,32.5,32.0,30.05,North,0,0.0,0.0,98,0.00,,,0.00,VWS V14.01,2013-01-13 05:06:00,
2013-01-13 00:11:00,32.5,32.0,30.05,North,0,0.0,0.0,98,0.00,,,0.00,VWS V14.01,2013-01-13 05:11:00,
2013-01-13 00:16:00,32.5,32.0,30.08,North,0,0.0,0.0,98,0.00,,,0.00,VWS V14.01,2013-01-13 05:16:00,
2013-01-13 00:21:00,32.5,32.0,30.08,North,0,0.0,0.0,98,0.00,,,0.00,VWS V14.01,2013-01-13 05:21:00,
2013-01-13 00:26:00,32.5,32.0,30.08,North,0,0.0,0.0,98,0.00,,,0.00,VWS V14.01,2013-01-13 05:26:00,
2013-01-13 00:31:00,32.5,32.0,30.08,North,0,0.0,0.0,98,0.00,,,0.00,VWS V14.01,2013-01-13 05:31:00,
2013-01-13 00:36:00,32.5,32.0,30.08,North,0,0.0,0.0,98,0.00,,,0.00,VWS V14.01,2013-01-13 05:36:00,
2013-01-13 00:41:00,32.7,32.2,30.08,North,0,0.0,0.0,98,0.00,,,0.00,VWS V14.01,2013-01-13 05:41:00,
2013-01-13 00:46:00,32.7,32.2,30.08,North,0,0.0,0.0,98,0.00,,,0.00,VWS V14.01,2013-01-13 05:46:00,
2013-01-13 00:51:00,32.7,32.2,30.08,North,0,0.0,0.0,98,0.00,,,0.00,VWS V14.01,2013-01-13 05:51:00,
2013-01-13 00:56:00,32.7,32.2,30.08,North,0,0.0,0.0,98,0.00,,,0.00,VWS V14.01,2013-01-13 05:56:00,
2013-01-13 01:01:00,32.7,32.2,30.08,North,0,0.0,0.0,98,0.00,,,0.00,VWS V14.01,2013-01-13 06:01:00,
2013-01-13 01:06:00,32.7,32.2,30.08,North,0,0.0,0.0,98,0.00,,,0.00,VWS V14.01,2013-01-13 06:06:00,
2013-01-13 01:11:00,32.7,32.2,30.08,North,0,0.0,0.0,98,0.00,,,0.00,VWS V14.01,2013-01-13 06:11:00,
2013-01-13 01:16:00,32.7,32.2,30.08,North,0,0.0,0.0,98,0.00,,,0.00,VWS V14.01,2013-01-13 06:16:00,
2013-01-13 01:21:00,32.7,32.2,30.08,North,0,0.0,0.0,98,0.00,,,0.00,VWS V14.01,2013-01-13 06:21:00,
2013-01-13 01:26:00,32.7,32.2,30.08,North,0,0.0,0.0,98,0.00,,,0.00,VWS V14.01,2013-01-13 06:26:00,
2013-01-13 01:32:00,32.7,32.2,30.08,North,0,0.0,0.0,98,0.00,,,0.00,VWS V14.01,2013-01-13 06:32:00,
2013-01-13 01:37:00,32.7,32.2,30.08,North,0,0.0,0.0,98,0.00,,,0.00,VWS V14.01,2013-01-13 06:37:00,
2013-01-13 01:42:00,32.7,32.2,30.08,North,0,0.0,0.0,98,0.00,,,0.00,VWS V14.01,2013-01-13 06:42:00,
2013-01-13 01:47:00,32.7,32.2,30.08,North,0,0.0,0.0,98,0.00,,,0.00,VWS V14.01,2013-01-13 06:47:00,
2013-01-13 01:52:00,32.7,32.2,30.08,North,0,0.0,0.0,98,0.00,,,0.00,VWS V14.01,2013-01-13 06:52:00,
2013-01-13 01:57:00,32.7,32.2,30.08,North,0,0.0,0.0,98,0.00,,,0.00,VWS V14.01,2013-01-13 06:57:00,
2013-01-13 02:02:00,32.7,32.2,30.08,North,0,0.0,0.0,98,0.00,,,0.00,VWS V14.01,2013-01-13 07:02:00,
2013-01-13 02:07:00,32.7,32.2,30.08,North,0,0.0,0.0,98,0.00,,,0.00,VWS V14.01,2013-01-13 07:07:00,
2013-01-13 02:12:00,32.7,32.2,30.08,North,0,0.0,0.0,98,0.00,,,0.00,VWS V14.01,2013-01-13 07:12:00,
2013-01-13 02:17:00,32.7,32.2,30.08,North,0,0.0,0.0,98,0.00,,,0.00,VWS V14.01,2013-01-13 07:17:00,
2013-01-13 02:22:00,32.7,32.2,30.08,North,0,0.0,0.0,98,0.00,,,0.00,VWS V14.01,2013-01-13 07:22:00,
2013-01-13 02:27:00,32.7,32.2,30.08,North,0,0.0,0.0,98,0.00,,,0.00,VWS V14.01,2013-01-13 07:27:00,
2013-01-13 02:32:00,32.7,32.2,30.05,North,0,0.0,0.0,98,0.00,,,0.00,VWS V14.01,2013-01-13 07:32:00,
2013-01-13 02:37:00,32.7,32.2,30.05,North,0,0.0,0.0,98,0.00,,,0.00,VWS V14.01,2013-01-13 07:37:00,
2013-01-13 02:42:00,32.7,32.2,30.05,North,0,0.0,0.0,98,0.00,,,0.00,VWS V14.01,2013-01-13 07:42:00,
2013-01-13 02:47:00,32.7,32.2,30.05,North,0,0.0,0.0,98,0.00,,,0.00,VWS V14.01,2013-01-13 07:47:00,
2013-01-13 02:52:00,32.7,32.2,30.05,North,0,0.0,0.0,98,0.00,,,0.00,VWS V14.01,2013-01-13 07:52:00,
2013-01-13 02:57:00,32.7,32.2,30.05,North,0,0.0,0.0,98,0.00,,,0.00,VWS V14.01,2013-01-13 07:57:00,
2013-01-13 03:02:00,32.7,32.2,30.05,North,0,0.0,0.0,98,0.00,,,0.00,VWS V14.01,2013-01-13 08:02:00,
2013-01-13 03:07:00,32.7,32.2,30.05,North,0,0.0,0.0,98,0.00,,,0.00,VWS V14.01,2013-01-13 08:07:00,
2013-01-13 03:12:00,32.7,32.2,30.05,North,0,0.0,0.0,98,0.00,,,0.00,VWS V14.01,2013-01-13 08:12:00,
2013-01-13 03:17:00,32.7,32.2,30.05,North,0,0.0,0.0,98,0.00,,,0.00,VWS V14.01,2013-01-13 08:17:00,
2013-01-13 03:22:00,32.7,32.2,30.05,North,0,0.0,0.0,98,0.00,,,0.00,VWS V14.01,2013-01-13 08:22:00,
2013-01-13 03:27:00,32.7,32.2,30.05,North,0,0.0,0.0,98,0.00,,,0.00,VWS V14.01,2013-01-13 08:27:00,
2013-01-13 03:32:00,32.7,32.2,30.05,North,0,0.0,0.0,98,0.00,,,0.00,VWS V14.01,2013-01-13 08:32:00,
2013-01-13 03:37:00,32.7,32.2,30.05,North,0,0.0,0.0,98,0.00,,,0.00,VWS V14.01,2013-01-13 08:37:00,
2013-01-13 03:42:00,32.7,32.2,30.05,North,0,0.0,0.0,98,0.00,,,0.00,VWS V14.01,2013-01-13 08:42:00,
2013-01-13 03:47:00,32.7,32.2,30.05,North,0,0.0,0.0,98,0.00,,,0.00,VWS V14.01,2013-01-13 08:47:00,
2013-01-13 03:52:00,32.7,32.2,30.05,North,0,0.0,0.0,98,0.00,,,0.00,VWS V14.01,2013-01-13 08:52:00,
2013-01-13 03:57:00,32.7,32.2,30.05,North,0,0.0,0.0,98,0.00,,,0.00,VWS V14.01,2013-01-13 08:57:00,
2013-01-13 04:02:00,32.7,32.2,30.05,North,0,0.0,0.0,98,0.00,,,0.00,VWS V14.01,2013-01-13 09:02:00,
2013-01-13 04:07:00,32.7,32.2,30.05,North,0,0.0,0.0,98,0.00,,,0.00,VWS V14.01,2013-01-13 09:07:00,
2013-01-13 04:12:00,32.7,32.2,30.05,North,0,0.0,0.0,98,0.00,,,0.00,VWS V14.01,2013-01-13 09:12:00,
2013-01-13 04:17:00,32.7,32.2,30.05,North,0,0.0,0.0,98,0.00,,,0.00,VWS V14.01,2013-01-13 09:17:00,
2013-01-13 04:22:00,32.7,32.2,30.05,North,0,0.0,0.0,98,0.00,,,0.00,VWS V14.01,2013-01-13 09:22:00,
2013-01-13 04:27:00,32.5,32.0,30.05,North,0,0.0,0.0,98,0.00,,,0.00,VWS V14.01,2013-01-13 09:27:00,
2013-01-13 04:32:00,32.5,32.0,30.02,North,0,0.0,0.0,98,0.00,,,0.00,VWS V14.01,2013-01-13 09:32:00,
2013-01-13 04:37:00,32.5,32.0,30.02,North,0,0.0,0.0,98,0.00,,,0.00,VWS V14.01,2013-01-13 09:37:00,
2013-01-13 04:42:00,32.5,32.0,30.02,North,0,0.0,0.0,98,0.00,,,0.00,VWS V14.01,2013-01-13 09:42:00,
2013-01-13 04:47:00,32.5,32.0,29.99,North,0,0.0,0.0,98,0.00,,,0.00,VWS V14.01,2013-01-13 09:47:00,
2013-01-13 04:52:00,32.5,32.0,29.99,North,0,0.0,0.0,98,0.00,,,0.00,VWS V14.01,2013-01-13 09:52:00,
2013-01-13 04:57:00,32.5,32.0,29.99,North,0,0.0,0.0,98,0.00,,,0.00,VWS V14.01,2013-01-13 09:57:00,
2013-01-13 05:02:00,32.4,31.9,30.02,North,0,0.0,0.0,98,0.00,,,0.00,VWS V14.01,2013-01-13 10:02:00,
2013-01-13 05:07:00,32.4,31.9,30.02,North,0,0.0,0.0,98,0.00,,,0.00,VWS V14.01,2013-01-13 10:07:00,
2013-01-13 05:12:00,32.2,31.7,30.02,North,0,0.0,0.0,98,0.00,,,0.00,VWS V14.01,2013-01-13 10:12:00,
2013-01-13 05:17:00,32.2,31.7,29.99,North,0,0.0,0.0,98,0.00,,,0.00,VWS V14.01,2013-01-13 10:17:00,
2013-01-13 05:22:00,32.2,31.7,29.99,North,0,0.0,0.0,98,0.00,,,0.00,VWS V14.01,2013-01-13 10:22:00,
2013-01-13 05:27:00,32.2,31.7,29.99,North,0,0.0,0.0,98,0.00,,,0.00,VWS V14.01,2013-01-13 10:27:00,
2013-01-13 05:32:00,32.4,31.9,30.02,North,0,0.0,0.0,98,0.00,,,0.00,VWS V14.01,2013-01-13 10:32:00,
2013-01-13 05:37:00,32.4,31.9,30.02,North,0,0.0,0.0,98,0.00,,,0.00,VWS V14.01,2013-01-13 10:37:00,
2013-01-13 05:42:00,32.5,32.0,30.02,North,0,0.0,0.0,98,0.00,,,0.00,VWS V14.01,2013-01-13 10:42:00,
2013-01-13 05:47:00,32.5,32.0,29.99,North,0,0.0,0.0,98,0.00,,,0.00,VWS V14.01,2013-01-13 10:47:00,
2013-01-13 05:52:00,32.5,32.0,29.99,North,0,0.0,0.0,98,0.00,,,0.00,VWS V14.01,2013-01-13 10:52:00,
2013-01-13 05:57:00,32.5,32.0,29.99,North,0,0.0,0.0,98,0.00,,,0.00,VWS V14.01,2013-01-13 10:57:00,
2013-01-13 06:03:00,32.5,32.0,29.99,North,0,0.0,0.0,98,0.00,,,0.00,VWS V14.01,2013-01-13 11:03:00,
2013-01-13 06:08:00,32.5,32.0,29.99,North,0,0.0,0.0,98,0.00,,,0.00,VWS V14.01,2013-01-13 11:08:00,
2013-01-13 06:13:00,32.5,32.0,29.99,North,0,0.0,0.0,98,0.00,,,0.00,VWS V14.01,2013-01-13 11:13:00,
2013-01-13 06:18:00,32.5,32.0,29.99,North,0,0.0,0.0,98,0.00,,,0.00,VWS V14.01,2013-01-13 11:18:00,
2013-01-13 06:23:00,32.5,32.0,29.99,North,0,0.0,0.0,98,0.00,,,0.00,VWS V14.01,2013-01-13 11:23:00,
2013-01-13 06:28:00,32.5,32.0,29.99,North,0,0.0,0.0,98,0.00,,,0.00,VWS V14.01,2013-01-13 11:28:00,
2013-01-13 06:33:00,32.5,32.0,29.99,North,0,0.0,0.0,98,0.00,,,0.00,VWS V14.01,2013-01-13 11:33:00,
2013-01-13 06:38:00,32.5,32.0,29.99,North,0,0.0,0.0,98,0.00,,,0.00,VWS V14.01,2013-01-13 11:38:00,
2013-01-13 06:43:00,32.5,32.0,29.99,North,0,0.0,0.0,98,0.00,,,0.00,VWS V14.01,2013-01-13 11:43:00,
2013-01-13 06:48:00,32.5,32.0,29.99,North,0,0.0,0.0,98,0.00,,,0.00,VWS V14.01,2013-01-13 11:48:00,
2013-01-13 06:53:00,32.5,32.0,29.99,North,0,0.0,0.0,98,0.00,,,0.00,VWS V14.01,2013-01-13 11:53:00,
2013-01-13 06:58:00,32.5,32.0,29.99,North,0,0.0,0.0,98,0.00,,,0.00,VWS V14.01,2013-01-13 11:58:00,
2013-01-13 07:03:00,32.5,32.0,29.99,North,0,0.0,0.0,98,0.00,,,0.00,VWS V14.01,2013-01-13 12:03:00,
2013-01-13 07:08:00,32.5,32.0,29.99,North,0,0.0,0.0,98,0.00,,,0.00,VWS V14.01,2013-01-13 12:08:00,
2013-01-13 07:13:00,32.5,32.0,29.99,North,0,0.0,0.0,98,0.00,,,0.00,VWS V14.01,2013-01-13 12:13:00,
2013-01-13 07:18:00,32.5,32.0,29.99,North,0,0.0,0.0,98,0.00,,,0.00,VWS V14.01,2013-01-13 12:18:00,
2013-01-13 07:23:00,32.5,32.0,29.99,North,0,0.0,0.0,98,0.00,,,0.00,VWS V14.01,2013-01-13 12:23:00,
2013-01-13 07:28:00,32.5,32.0,29.99,North,0,0.0,0.0,98,0.00,,,0.00,VWS V14.01,2013-01-13 12:28:00,
2013-01-13 07:33:00,32.4,31.9,29.99,North,0,0.0,0.0,98,0.00,,,0.00,VWS V14.01,2013-01-13 12:33:00,
2013-01-13 07:38:00,32.4,31.9,29.99,North,0,0.0,0.0,98,0.00,,,0.00,VWS V14.01,2013-01-13 12:38:00,
2013-01-13 07:43:00,32.2,31.7,29.99,North,0,0.0,0.0,98,0.00,,,0.00,VWS V14.01,2013-01-13 12:43:00,
2013-01-13 07:48:00,32.2,31.7,29.96,North,0,0.0,0.0,98,0.00,,,0.00,VWS V14.01,2013-01-13 12:48:00,
2013-01-13 07:53:00,32.9,32.4,29.96,North,0,0.0,0.0,98,0.00,,,0.00,VWS V14.01,2013-01-13 12:53:00,
2013-01-13 07:58:00,34.5,34.0,29.96,North,0,0.0,0.0,98,0.00,,,0.00,VWS V14.01,2013-01-13 12:58:00,
2013-01-13 08:03:00,35.1,34.5,29.96,North,0,0.0,0.0,98,0.00,,,0.00,VWS V14.01,2013-01-13 13:03:00,
2013-01-13 08:08:00,36.0,35.5,29.96,North,0,0.0,0.0,98,0.00,,,0.00,VWS V14.01,2013-01-13 13:08:00,
2013-01-13 08:13:00,36.9,36.3,29.96,North,0,0.0,0.0,98,0.00,,,0.00,VWS V14.01,2013-01-13 13:13:00,
2013-01-13 08:18:00,37.0,36.5,29.99,North,0,0.0,0.0,98,0.00,,,0.00,VWS V14.01,2013-01-13 13:18:00,
2013-01-13 08:23:00,37.2,36.7,29.99,North,0,0.0,0.0,98,0.00,,,0.00,VWS V14.01,2013-01-13 13:23:00,
2013-01-13 08:28:00,37.0,36.5,29.99,North,0,0.0,0.0,98,0.00,,,0.00,VWS V14.01,2013-01-13 13:28:00,
2013-01-13 08:33:00,36.9,36.3,29.99,North,0,0.0,0.0,98,0.00,,,0.00,VWS V14.01,2013-01-13 13:33:00,
2013-01-13 08:38:00,36.7,36.2,29.99,North,0,0.0,0.0,98,0.00,,,0.00,VWS V14.01,2013-01-13 13:38:00,
2013-01-13 08:43:00,36.3,35.8,29.99,North,0,0.0,0.0,98,0.00,,,0.00,VWS V14.01,2013-01-13 13:43:00,
2013-01-13 08:48:00,36.1,35.6,29.99,North,0,0.0,0.0,98,0.00,,,0.00,VWS V14.01,2013-01-13 13:48:00,
2013-01-13 08:53:00,35.8,35.3,29.99,North,0,0.0,0.0,98,0.00,,,0.00,VWS V14.01,2013-01-13 13:53:00,
2013-01-13 08:58:00,35.6,35.1,29.99,North,0,0.0,0.0,98,0.00,,,0.00,VWS V14.01,2013-01-13 13:58:00,
2013-01-13 09:03:00,35.6,35.1,29.96,North,0,0.0,0.0,98,0.00,,,0.00,VWS V14.01,2013-01-13 14:03:00,
2013-01-13 09:08:00,35.8,35.3,29.96,North,0,0.0,0.0,98,0.00,,,0.00,VWS V14.01,2013-01-13 14:08:00,
2013-01-13 09:13:00,36.0,35.5,29.96,North,0,0.0,0.0,98,0.00,,,0.00,VWS V14.01,2013-01-13 14:13:00,
2013-01-13 09:18:00,36.1,35.6,29.96,North,0,0.0,0.0,98,0.00,,,0.00,VWS V14.01,2013-01-13 14:18:00,
2013-01-13 09:23:00,36.1,35.6,29.96,North,0,0.0,0.0,98,0.00,,,0.00,VWS V14.01,2013-01-13 14:23:00,
2013-01-13 09:28:00,36.3,35.8,29.96,North,0,0.0,0.0,98,0.00,,,0.00,VWS V14.01,2013-01-13 14:28:00,
2013-01-13 09:33:00,37.0,36.5,29.96,North,0,0.0,0.0,98,0.00,,,0.00,VWS V14.01,2013-01-13 14:33:00,
2013-01-13 09:38:00,37.6,37.1,29.96,North,0,0.0,0.0,98,0.04,,,0.04,VWS V14.01,2013-01-13 14:38:00,
2013-01-13 09:43:00,37.8,37.2,29.96,North,0,0.0,0.0,98,0.04,,,0.04,VWS V14.01,2013-01-13 14:43:00,
2013-01-13 09:48:00,37.9,37.4,29.96,North,0,0.0,0.0,98,0.04,,,0.04,VWS V14.01,2013-01-13 14:48:00,
2013-01-13 09:53:00,37.9,37.4,29.96,North,0,0.0,0.0,98,0.04,,OVC110,0.04,VWS V14.01,2013-01-13 14:53:00,
2013-01-13 09:58:00,37.4,36.9,29.96,North,0,0.0,0.0,98,0.04,,OVC110,0.04,VWS V14.01,2013-01-13 14:58:00,
2013-01-13 10:03:00,37.4,36.9,29.96,North,0,0.0,0.0,98,0.04,,OVC110,0.04,VWS V14.01,2013-01-13 15:03:00,
2013-01-13 10:08:00,37.9,37.4,29.96,North,0,0.0,0.0,98,0.04,,OVC110,0.04,VWS V14.01,2013-01-13 15:08:00,
2013-01-13 10:13:00,38.1,37.6,29.96,North,0,0.0,0.0,98,0.04,,OVC110,0.04,VWS V14.01,2013-01-13 15:13:00,
2013-01-13 10:18:00,38.3,37.8,29.96,North,0,0.0,0.0,98,0.04,,OVC110,0.04,VWS V14.01,2013-01-13 15:18:00,
2013-01-13 10:23:00,38.5,38.0,29.96,North,0,0.0,0.0,98,0.04,,OVC110,0.04,VWS V14.01,2013-01-13 15:23:00,
2013-01-13 10:28:00,38.5,38.0,29.96,North,0,0.0,0.0,98,0.04,,OVC110,0.04,VWS V14.01,2013-01-13 15:28:00,
2013-01-13 10:33:00,38.5,38.0,29.96,North,0,0.0,0.0,98,0.04,,OVC110,0.04,VWS V14.01,2013-01-13 15:33:00,
2013-01-13 10:38:00,38.3,37.8,29.96,North,0,0.0,0.0,98,0.00,,OVC110,0.04,VWS V14.01,2013-01-13 15:38:00,
2013-01-13 10:43:00,38.1,37.6,29.96,North,0,0.0,0.0,98,0.00,,,0.04,VWS V14.01,2013-01-13 15:43:00,
2013-01-13 10:48:00,38.1,37.6,29.96,North,0,0.0,0.0,98,0.00,,,0.04,VWS V14.01,2013-01-13 15:48:00,
2013-01-13 10:53:00,38.5,38.0,29.96,North,0,0.0,0.0,98,0.00,,,0.04,VWS V14.01,2013-01-13 15:53:00,
2013-01-13 10:58:00,37.9,37.4,29.96,North,0,0.0,0.0,98,0.00,,,0.04,VWS V14.01,2013-01-13 15:58:00,
2013-01-13 11:03:00,37.6,37.1,29.93,North,0,0.0,0.0,98,0.00,,,0.04,VWS V14.01,2013-01-13 16:03:00,
2013-01-13 11:08:00,37.8,37.2,29.93,North,0,0.0,0.0,98,0.00,,,0.04,VWS V14.01,2013-01-13 16:08:00,
2013-01-13 11:13:00,38.3,37.8,29.93,North,0,0.0,0.0,98,0.00,,,0.04,VWS V14.01,2013-01-13 16:13:00,
2013-01-13 11:18:00,38.7,38.2,29.93,North,0,0.0,0.0,98,0.00,,,0.04,VWS V14.01,2013-01-13 16:18:00,
2013-01-13 11:23:00,38.7,38.2,29.93,North,0,0.0,0.0,98,0.00,,,0.04,VWS V14.01,2013-01-13 16:23:00,
2013-01-13 11:28:00,39.7,39.2,29.93,North,0,0.0,0.0,98,0.00,,,0.04,VWS V14.01,2013-01-13 16:28:00,
2013-01-13 11:33:00,40.1,39.6,29.93,North,0,0.0,0.0,98,0.00,,,0.04,VWS V14.01,2013-01-13 16:33:00,
2013-01-13 11:38:00,41.0,40.5,29.93,North,0,0.0,0.0,98,0.00,,,0.04,VWS V14.01,2013-01-13 16:38:00,
2013-01-13 11:43:00,41.0,40.5,29.90,North,0,0.0,0.0,98,0.00,,OVC055,0.04,VWS V14.01,2013-01-13 16:43:00,
2013-01-13 11:48:00,40.6,40.1,29.90,North,0,0.0,0.0,98,0.00,,OVC055,0.04,VWS V14.01,2013-01-13 16:48:00,
2013-01-13 11:53:00,40.6,40.1,29.90,North,0,0.0,0.0,98,0.00,,OVC055,0.04,VWS V14.01,2013-01-13 16:53:00,
2013-01-13 11:58:00,44.1,43.5,29.90,North,0,0.0,0.0,98,0.00,,OVC055,0.04,VWS V14.01,2013-01-13 16:58:00,
2013-01-13 12:03:00,47.5,47.0,29.90,North,0,0.0,0.0,98,0.00,,OVC055,0.04,VWS V14.01,2013-01-13 17:03:00,
2013-01-13 12:08:00,49.6,49.1,29.90,North,0,0.0,0.0,98,0.00,,OVC055,0.04,VWS V14.01,2013-01-13 17:08:00,
2013-01-13 12:13:00,51.1,50.5,29.87,North,0,0.0,0.0,98,0.00,,OVC055,0.04,VWS V14.01,2013-01-13 17:13:00,
2013-01-13 12:18:00,52.5,52.0,29.87,North,0,0.0,0.0,98,0.00,,OVC055,0.04,VWS V14.01,2013-01-13 17:18:00,
2013-01-13 12:23:00,53.6,53.0,29.87,North,0,0.0,0.0,98,0.00,,OVC055,0.04,VWS V14.01,2013-01-13 17:23:00,
2013-01-13 12:29:00,54.5,54.0,29.87,North,0,0.0,0.0,98,0.00,,OVC055,0.04,VWS V14.01,2013-01-13 17:29:00,
2013-01-13 12:34:00,55.2,54.7,29.87,North,0,0.0,0.0,98,0.00,,OVC055,0.04,VWS V14.01,2013-01-13 17:34:00,
2013-01-13 12:39:00,55.6,55.0,29.87,North,0,0.0,0.0,98,0.00,,OVC055,0.04,VWS V14.01,2013-01-13 17:39:00,
2013-01-13 12:44:00,55.8,55.2,29.87,North,0,0.0,0.0,98,0.00,,BKN075,0.04,VWS V14.01,2013-01-13 17:44:00,
2013-01-13 12:49:00,55.9,55.4,29.87,North,0,0.0,0.0,98,0.00,,BKN075,0.04,VWS V14.01,2013-01-13 17:49:00,
2013-01-13 12:54:00,56.1,55.6,29.87,North,0,0.0,0.0,98,0.00,,BKN075,0.04,VWS V14.01,2013-01-13 17:54:00,
2013-01-13 12:59:00,55.9,55.4,29.87,North,0,0.0,0.0,98,0.00,,BKN075,0.04,VWS V14.01,2013-01-13 17:59:00,
2013-01-13 13:04:00,55.9,55.4,29.87,North,0,0.0,0.0,98,0.00,,BKN075,0.04,VWS V14.01,2013-01-13 18:04:00,
2013-01-13 13:09:00,55.9,55.4,29.87,North,0,0.0,0.0,98,0.00,,BKN075,0.04,VWS V14.01,2013-01-13 18:09:00,
2013-01-13 13:14:00,55.8,55.2,29.84,North,0,0.0,0.0,98,0.00,,BKN075,0.04,VWS V14.01,2013-01-13 18:14:00,
2013-01-13 13:19:00,55.4,54.8,29.84,North,0,0.0,0.0,98,0.00,,BKN075,0.04,VWS V14.01,2013-01-13 18:19:00,
2013-01-13 13:24:00,55.0,54.5,29.84,North,0,0.0,0.0,98,0.00,,BKN075,0.04,VWS V14.01,2013-01-13 18:24:00,
2013-01-13 13:29:00,55.4,54.8,29.84,North,0,0.0,0.0,98,0.00,,BKN075,0.04,VWS V14.01,2013-01-13 18:29:00,
2013-01-13 13:34:00,53.2,52.7,29.84,North,0,0.0,0.0,98,0.00,,BKN075,0.04,VWS V14.01,2013-01-13 18:34:00,
2013-01-13 13:39:00,53.8,53.2,29.84,North,0,0.0,0.0,98,0.00,,BKN075,0.04,VWS V14.01,2013-01-13 18:39:00,
2013-01-13 13:44:00,55.0,54.5,29.84,North,0,0.0,0.0,98,0.00,,FEW022,0.04,VWS V14.01,2013-01-13 18:44:00,
2013-01-13 13:49:00,56.1,55.6,29.84,North,0,0.0,0.0,98,0.00,,FEW022,0.04,VWS V14.01,2013-01-13 18:49:00,
2013-01-13 13:54:00,56.5,55.9,29.84,North,0,0.0,0.0,98,0.00,,FEW022,0.04,VWS V14.01,2013-01-13 18:54:00,
2013-01-13 13:59:00,53.6,53.0,29.87,North,0,0.0,0.0,98,0.00,,FEW022,0.04,VWS V14.01,2013-01-13 18:59:00,
2013-01-13 14:04:00,50.0,48.9,29.87,North,0,0.0,0.0,96,0.00,,FEW022,0.04,VWS V14.01,2013-01-13 19:04:00,
2013-01-13 14:09:00,49.5,48.4,29.87,North,0,0.0,0.0,96,0.00,,FEW022,0.04,VWS V14.01,2013-01-13 19:09:00,
2013-01-13 14:14:00,49.5,48.1,29.87,North,0,0.0,0.0,95,0.00,,FEW022,0.04,VWS V14.01,2013-01-13 19:14:00,
2013-01-13 14:19:00,51.6,50.5,29.87,North,0,0.0,0.0,96,0.00,,FEW022,0.04,VWS V14.01,2013-01-13 19:19:00,
2013-01-13 14:24:00,53.4,52.3,29.87,North,0,0.0,0.0,96,0.00,,FEW022,0.04,VWS V14.01,2013-01-13 19:24:00,
2013-01-13 14:29:00,54.5,53.4,29.87,North,0,0.0,0.0,96,0.00,,FEW022,0.04,VWS V14.01,2013-01-13 19:29:00,
2013-01-13 14:34:00,54.9,53.5,29.87,North,0,0.0,0.0,95,0.00,,FEW022,0.04,VWS V14.01,2013-01-13 19:34:00,
2013-01-13 14:39:00,54.9,53.2,29.87,North,0,0.0,0.0,94,0.00,,FEW022,0.04,VWS V14.01,2013-01-13 19:39:00,
2013-01-13 14:44:00,54.9,53.2,29.87,North,0,0.0,0.0,94,0.00,,SCT021,0.04,VWS V14.01,2013-01-13 19:44:00,
2013-01-13 14:49:00,54.9,53.2,29.87,North,0,0.0,0.0,94,0.00,,SCT021,0.04,VWS V14.01,2013-01-13 19:49:00,
2013-01-13 14:54:00,54.9,53.2,29.87,North,0,0.0,0.0,94,0.00,,SCT021,0.04,VWS V14.01,2013-01-13 19:54:00,
2013-01-13 14:59:00,53.8,51.2,29.87,North,0,0.0,0.0,91,0.00,,SCT021,0.04,VWS V14.01,2013-01-13 19:59:00,
2013-01-13 15:04:00,53.8,51.2,29.87,North,0,0.0,0.0,91,0.00,,SCT021,0.04,VWS V14.01,2013-01-13 20:04:00,
2013-01-13 15:09:00,53.8,51.2,29.87,North,0,0.0,0.0,91,0.00,,SCT021,0.04,VWS V14.01,2013-01-13 20:09:00,
2013-01-13 15:14:00,53.8,51.2,29.87,North,0,0.0,0.0,91,0.00,,SCT021,0.04,VWS V14.01,2013-01-13 20:14:00,
2013-01-13 15:19:00,48.7,44.1,29.87,North,0,0.0,0.0,84,0.00,,SCT021,0.04,VWS V14.01,2013-01-13 20:19:00,
2013-01-13 15:24:00,43.3,37.9,29.87,North,0,0.0,0.0,81,0.00,,SCT021,0.04,VWS V14.01,2013-01-13 20:24:00,
2013-01-13 15:29:00,43.3,37.9,29.87,North,0,0.0,0.0,81,0.00,,SCT021,0.04,VWS V14.01,2013-01-13 20:29:00,
2013-01-13 15:34:00,43.3,37.9,29.87,North,0,0.0,0.0,81,0.00,,SCT021,0.04,VWS V14.01,2013-01-13 20:34:00,
2013-01-13 15:39:00,41.2,36.4,29.87,North,0,0.0,0.0,83,0.00,,SCT021,0.04,VWS V14.01,2013-01-13 20:39:00,
2013-01-13 15:44:00,41.2,36.4,29.87,North,0,0.0,0.0,83,0.00,,SCT021,0.04,VWS V14.01,2013-01-13 20:44:00,
2013-01-13 15:49:00,40.3,35.8,29.87,North,0,0.0,0.0,84,0.00,,SCT021,0.04,VWS V14.01,2013-01-13 20:49:00,
2013-01-13 15:54:00,40.3,35.8,29.87,North,0,0.0,0.0,84,0.00,,OVC021,0.04,VWS V14.01,2013-01-13 20:54:00,
2013-01-13 15:59:00,40.3,35.8,29.87,North,0,0.0,0.0,84,0.00,,OVC021,0.04,VWS V14.01,2013-01-13 20:59:00,
2013-01-13 16:04:00,38.8,34.7,29.87,North,0,0.0,0.0,85,0.00,,OVC021,0.04,VWS V14.01,2013-01-13 21:04:00,
2013-01-13 16:09:00,38.8,34.7,29.87,North,0,0.0,0.0,85,0.00,,OVC021,0.04,VWS V14.01,2013-01-13 21:09:00,
2013-01-13 16:14:00,39.4,35.5,29.87,North,0,0.0,0.0,86,0.00,,OVC021,0.04,VWS V14.01,2013-01-13 21:14:00,
2013-01-13 16:19:00,39.4,35.5,29.87,North,0,0.0,0.0,86,0.00,,OVC021,0.04,VWS V14.01,2013-01-13 21:19:00,
2013-01-13 16:24:00,39.4,35.5,29.87,North,0,0.0,0.0,86,0.00,,OVC021,0.04,VWS V14.01,2013-01-13 21:24:00,
2013-01-13 16:29:00,39.4,35.5,29.87,North,0,0.0,0.0,86,0.00,,OVC021,0.04,VWS V14.01,2013-01-13 21:29:00,
2013-01-13 16:34:00,40.8,38.1,29.87,North,0,0.0,0.0,90,0.00,,OVC021,0.04,VWS V14.01,2013-01-13 21:34:00,
2013-01-13 16:39:00,40.8,38.1,29.87,North,0,0.0,0.0,90,0.00,,OVC021,0.04,VWS V14.01,2013-01-13 21:39:00,
2013-01-13 16:44:00,40.8,38.1,29.87,North,0,0.0,0.0,90,0.00,,OVC019,0.04,VWS V14.01,2013-01-13 21:44:00,
2013-01-13 16:49:00,40.8,38.1,29.87,North,0,0.0,0.0,90,0.00,,OVC019,0.04,VWS V14.01,2013-01-13 21:49:00,
2013-01-13 16:54:00,40.5,38.0,29.87,North,0,0.0,0.0,91,0.00,,OVC019,0.04,VWS V14.01,2013-01-13 21:54:00,
2013-01-13 16:59:00,40.5,38.3,29.87,North,0,0.0,0.0,92,0.00,,OVC019,0.04,VWS V14.01,2013-01-13 21:59:00,
2013-01-13 17:04:00,40.5,38.3,29.87,North,0,0.0,0.0,92,0.00,,OVC019,0.04,VWS V14.01,2013-01-13 22:04:00,
2013-01-13 17:09:00,40.5,38.3,29.87,North,0,0.0,0.0,92,0.00,,OVC019,0.04,VWS V14.01,2013-01-13 22:09:00,
2013-01-13 17:14:00,40.5,38.3,29.87,North,0,0.0,0.0,92,0.00,,OVC019,0.04,VWS V14.01,2013-01-13 22:14:00,
2013-01-13 17:20:00,40.5,38.3,29.87,North,0,0.0,0.0,92,0.00,,OVC019,0.04,VWS V14.01,2013-01-13 22:20:00,
2013-01-13 17:25:00,38.5,36.6,29.87,North,0,0.0,0.0,93,0.00,,OVC019,0.04,VWS V14.01,2013-01-13 22:25:00,
2013-01-13 17:30:00,38.5,36.6,29.87,North,0,0.0,0.0,93,0.00,,OVC019,0.04,VWS V14.01,2013-01-13 22:30:00,
2013-01-13 17:35:00,37.9,36.1,29.87,North,0,0.0,0.0,93,0.00,,OVC019,0.04,VWS V14.01,2013-01-13 22:35:00,
2013-01-13 17:40:00,38.1,36.5,29.87,North,0,0.0,0.0,94,0.00,,OVC019,0.04,VWS V14.01,2013-01-13 22:40:00,
2013-01-13 17:45:00,38.3,36.7,29.87,North,0,0.0,0.0,94,0.00,,OVC032,0.04,VWS V14.01,2013-01-13 22:45:00,
2013-01-13 17:50:00,38.3,36.7,29.87,North,0,0.0,0.0,94,0.00,,OVC032,0.04,VWS V14.01,2013-01-13 22:50:00,
2013-01-13 17:55:00,38.3,36.7,29.87,North,0,0.0,0.0,94,0.00,,OVC032,0.04,VWS V14.01,2013-01-13 22:55:00,
2013-01-13 18:00:00,38.3,36.7,29.87,North,0,0.0,0.0,94,0.00,,OVC032,0.04,VWS V14.01,2013-01-13 23:00:00,
2013-01-13 18:05:00,38.1,36.8,29.87,North,0,0.0,0.0,95,0.00,,OVC032,0.04,VWS V14.01,2013-01-13 23:05:00,
2013-01-13 18:10:00,38.1,36.8,29.87,North,0,0.0,0.0,95,0.00,,OVC032,0.04,VWS V14.01,2013-01-13 23:10:00,
2013-01-13 18:15:00,38.1,36.8,29.87,North,0,0.0,0.0,95,0.00,,OVC032,0.04,VWS V14.01,2013-01-13 23:15:00,
2013-01-13 18:20:00,38.1,36.8,29.87,North,0,0.0,0.0,95,0.00,,OVC032,0.04,VWS V14.01,2013-01-13 23:20:00,
2013-01-13 18:25:00,38.1,36.8,29.87,North,0,0.0,0.0,95,0.00,,OVC032,0.04,VWS V14.01,2013-01-13 23:25:00,
2013-01-13 18:30:00,37.4,36.1,29.87,North,0,0.0,0.0,95,0.00,,OVC032,0.04,VWS V14.01,2013-01-13 23:30:00,
2013-01-13 18:35:00,37.4,36.1,29.87,North,0,0.0,0.0,95,0.00,,OVC032,0.04,VWS V14.01,2013-01-13 23:35:00,
2013-01-13 18:40:00,37.4,36.1,29.87,North,0,0.0,0.0,95,0.00,,OVC032,0.04,VWS V14.01,2013-01-13 23:40:00,
2013-01-13 18:45:00,37.8,36.5,29.87,North,0,0.0,0.0,95,0.00,,OVC020,0.04,VWS V14.01,2013-01-13 23:45:00,
2013-01-13 18:50:00,37.8,36.5,29.87,North,0,0.0,0.0,95,0.00,,OVC020,0.04,VWS V14.01,2013-01-13 23:50:00,
2013-01-13 18:55:00,38.7,37.6,29.87,North,0,0.0,0.0,96,0.00,,OVC020,0.04,VWS V14.01,2013-01-13 23:55:00,
2013-01-13 19:00:00,38.7,37.6,29.87,North,0,0.0,0.0,96,0.00,,OVC020,0.04,VWS V14.01,2013-01-14 00:00:00,
2013-01-13 19:05:00,38.7,37.6,29.87,North,0,0.0,0.0,96,0.00,,OVC020,0.04,VWS V14.01,2013-01-14 00:05:00,
2013-01-13 19:10:00,38.7,37.6,29.87,North,0,0.0,0.0,96,0.00,,OVC020,0.04,VWS V14.01,2013-01-14 00:10:00,
2013-01-13 19:15:00,38.7,37.6,29.87,North,0,0.0,0.0,96,0.00,,OVC016,0.04,VWS V14.01,2013-01-14 00:15:00,
2013-01-13 19:20:00,38.5,37.4,29.87,North,0,0.0,0.0,96,0.00,,OVC016,0.04,VWS V14.01,2013-01-14 00:20:00,
2013-01-13 19:25:00,38.5,37.4,29.87,North,0,0.0,0.0,96,0.00,,OVC016,0.04,VWS V14.01,2013-01-14 00:25:00,
2013-01-13 19:30:00,38.5,37.4,29.87,North,0,0.0,0.0,96,0.00,,OVC016,0.04,VWS V14.01,2013-01-14 00:30:00,
2013-01-13 19:35:00,38.5,37.4,29.87,North,0,0.0,0.0,96,0.00,,OVC016,0.04,VWS V14.01,2013-01-14 00:35:00,
2013-01-13 19:40:00,38.5,37.4,29.87,North,0,0.0,0.0,96,0.00,,OVC016,0.04,VWS V14.01,2013-01-14 00:40:00,
2013-01-13 19:45:00,37.6,36.5,29.87,North,0,0.0,0.0,96,0.00,,OVC016,0.04,VWS V14.01,2013-01-14 00:45:00,
2013-01-13 19:50:00,37.6,36.5,29.87,North,0,0.0,0.0,96,0.00,,OVC016,0.04,VWS V14.01,2013-01-14 00:50:00,
2013-01-13 19:55:00,37.4,36.4,29.87,North,0,0.0,0.0,96,0.00,,OVC016,0.04,VWS V14.01,2013-01-14 00:55:00,
2013-01-13 20:00:00,37.4,36.4,29.87,North,0,0.0,0.0,96,0.00,,OVC016,0.04,VWS V14.01,2013-01-14 01:00:00,
2013-01-13 20:05:00,37.4,36.6,29.87,North,0,0.0,0.0,97,0.00,,OVC016,0.04,VWS V14.01,2013-01-14 01:05:00,
2013-01-13 20:10:00,37.4,36.6,29.87,North,0,0.0,0.0,97,0.00,,OVC016,0.04,VWS V14.01,2013-01-14 01:10:00,
2013-01-13 20:15:00,37.4,36.6,29.87,North,0,0.0,0.0,97,0.00,,OVC016,0.04,VWS V14.01,2013-01-14 01:15:00,
2013-01-13 20:20:00,37.4,36.6,29.87,North,0,0.0,0.0,97,0.00,,OVC016,0.04,VWS V14.01,2013-01-14 01:20:00,
2013-01-13 20:25:00,37.4,36.6,29.87,North,0,0.0,0.0,97,0.00,,OVC016,0.04,VWS V14.01,2013-01-14 01:25:00,
2013-01-13 20:30:00,36.7,35.9,29.87,North,0,0.0,0.0,97,0.00,,OVC016,0.04,VWS V14.01,2013-01-14 01:30:00,
2013-01-13 20:35:00,36.7,35.9,29.87,North,0,0.0,0.0,97,0.00,,OVC016,0.04,VWS V14.01,2013-01-14 01:35:00,
2013-01-13 20:40:00,36.7,35.9,29.87,North,0,0.0,0.0,97,0.00,,OVC010,0.04,VWS V14.01,2013-01-14 01:40:00,
2013-01-13 20:45:00,36.7,35.9,29.87,North,0,0.0,0.0,97,0.00,,OVC010,0.04,VWS V14.01,2013-01-14 01:45:00,
2013-01-13 20:50:00,36.7,35.9,29.87,North,0,0.0,0.0,97,0.00,,OVC010,0.04,VWS V14.01,2013-01-14 01:50:00,
2013-01-13 20:55:00,36.7,35.9,29.87,North,0,0.0,0.0,97,0.00,,OVC010,0.04,VWS V14.01,2013-01-14 01:55:00,
2013-01-13 21:00:00,36.7,35.9,29.87,North,0,0.0,0.0,97,0.00,,OVC010,0.04,VWS V14.01,2013-01-14 02:00:00,
2013-01-13 21:05:00,36.7,35.9,29.87,North,0,0.0,0.0,97,0.00,,OVC010,0.04,VWS V14.01,2013-01-14 02:05:00,
2013-01-13 21:10:00,36.5,36.0,29.87,North,0,0.0,0.0,98,0.00,,OVC010,0.04,VWS V14.01,2013-01-14 02:10:00,
2013-01-13 21:15:00,36.7,36.2,29.87,North,0,0.0,0.0,98,0.00,,OVC010,0.04,VWS V14.01,2013-01-14 02:15:00,
2013-01-13 21:20:00,36.7,36.2,29.87,North,0,0.0,0.0,98,0.00,,OVC010,0.04,VWS V14.01,2013-01-14 02:20:00,
2013-01-13 21:25:00,36.7,36.2,29.87,North,0,0.0,0.0,98,0.00,,OVC010,0.04,VWS V14.01,2013-01-14 02:25:00,
2013-01-13 21:30:00,36.7,36.2,29.87,North,0,0.0,0.0,98,0.00,,OVC010,0.04,VWS V14.01,2013-01-14 02:30:00,
2013-01-13 21:35:00,36.7,36.2,29.87,North,0,0.0,0.0,98,0.00,,OVC010,0.04,VWS V14.01,2013-01-14 02:35:00,
2013-01-13 21:40:00,36.7,36.2,29.87,North,0,0.0,0.0,98,0.00,,OVC008,0.04,VWS V14.01,2013-01-14 02:40:00,
2013-01-13 21:45:00,36.7,36.2,29.87,North,0,0.0,0.0,98,0.00,,OVC008,0.04,VWS V14.01,2013-01-14 02:45:00,
2013-01-13 21:50:00,36.7,36.2,29.87,North,0,0.0,0.0,98,0.00,,OVC008,0.04,VWS V14.01,2013-01-14 02:50:00,
2013-01-13 21:55:00,36.7,36.2,29.87,North,0,0.0,0.0,98,0.00,,OVC008,0.04,VWS V14.01,2013-01-14 02:55:00,
2013-01-13 22:00:00,36.7,36.2,29.87,North,0,0.0,0.0,98,0.00,,OVC008,0.04,VWS V14.01,2013-01-14 03:00:00,
2013-01-13 22:05:00,36.9,36.3,29.87,North,0,0.0,0.0,98,0.00,,OVC008,0.04,VWS V14.01,2013-01-14 03:05:00,
2013-01-13 22:10:00,36.9,36.3,29.87,North,0,0.0,0.0,98,0.00,,OVC008,0.04,VWS V14.01,2013-01-14 03:10:00,
2013-01-13 22:15:00,36.9,36.3,29.87,North,0,0.0,0.0,98,0.00,,OVC008,0.04,VWS V14.01,2013-01-14 03:15:00,
2013-01-13 22:21:00,36.9,36.3,29.87,North,0,0.0,0.0,98,0.00,,OVC008,0.04,VWS V14.01,2013-01-14 03:21:00,
2013-01-13 22:26:00,37.4,36.9,29.87,North,0,0.0,0.0,98,0.00,,OVC008,0.04,VWS V14.01,2013-01-14 03:26:00,
2013-01-13 22:31:00,37.2,36.7,29.87,North,0,0.0,0.0,98,0.00,,OVC008,0.04,VWS V14.01,2013-01-14 03:31:00,
2013-01-13 22:36:00,37.2,36.7,29.87,North,0,0.0,0.0,98,0.00,,OVC008,0.04,VWS V14.01,2013-01-14 03:36:00,
2013-01-13 22:41:00,37.0,36.5,29.87,North,0,0.0,0.0,98,0.00,,,0.04,VWS V14.01,2013-01-14 03:41:00,
2013-01-13 22:46:00,37.0,36.5,29.87,North,0,0.0,0.0,98,0.00,,,0.04,VWS V14.01,2013-01-14 03:46:00,
2013-01-13 22:51:00,36.9,36.3,29.87,North,0,0.0,0.0,98,0.00,,,0.04,VWS V14.01,2013-01-14 03:51:00,
2013-01-13 22:56:00,36.9,36.3,29.87,North,0,0.0,0.0,98,0.00,,,0.04,VWS V14.01,2013-01-14 03:56:00,
2013-01-13 23:01:00,37.0,36.5,29.87,North,0,0.0,0.0,98,0.00,,,0.04,VWS V14.01,2013-01-14 04:01:00,
2013-01-13 23:06:00,37.0,36.5,29.87,North,0,0.0,0.0,98,0.00,,,0.04,VWS V14.01,2013-01-14 04:06:00,
2013-01-13 23:11:00,37.0,36.5,29.87,North,0,0.0,0.0,98,0.00,,,0.04,VWS V14.01,2013-01-14 04:11:00,
2013-01-13 23:16:00,36.9,36.3,29.87,North,0,0.0,0.0,98,0.00,,,0.04,VWS V14.01,2013-01-14 04:16:00,
2013-01-13 23:21:00,37.0,36.5,29.87,North,0,0.0,0.0,98,0.00,,,0.04,VWS V14.01,2013-01-14 04:21:00,
2013-01-13 23:26:00,37.0,36.5,29.87,North,0,0.0,0.0,98,0.00,,,0.04,VWS V14.01,2013-01-14 04:26:00,
2013-01-13 23:31:00,37.0,36.5,29.87,North,0,0.0,0.0,98,0.00,,,0.04,VWS V14.01,2013-01-14 04:31:00,
2013-01-13 23:36:00,38.5,38.0,29.87,North,0,0.0,0.0,98,0.00,,,0.04,VWS V14.01,2013-01-14 04:36:00,
2013-01-13 23:41:00,37.9,37.4,29.87,North,0,0.0,0.0,98,0.00,,,0.04,VWS V14.01,2013-01-14 04:41:00,
2013-01-13 23:46:00,37.9,37.4,29.87,North,0,0.0,0.0,98,0.00,,,0.04,VWS V14.01,2013-01-14 04:46:00,
2013-01-13 23:51:00,37.9,37.4,29.87,North,0,0.0,0.0,98,0.00,,OVC006,0.04,VWS V14.01,2013-01-14 04:51:00,
2013-01-13 23:56:00,37.9,37.4,29.87,North,0,0.0,0.0,98,0.00,,OVC006,0.04,VWS V14.01,2013-01-14 04:56:00,